createdAt,value
2023-01-19T00:04:21.888Z,5.70
2023-01-19T00:09:24.875Z,6.17
2023-01-19T00:14:27.806Z,6.51
2023-01-19T00:19:30.703Z,6.68
2023-01-19T00:24:33.917Z,6.78
2023-01-19T00:29:36.930Z,7.07
2023-01-19T00:34:43.144Z,7.11
2023-01-19T00:39:46.006Z,6.77
2023-01-19T00:44:48.908Z,6.69
2023-01-19T00:49:51.813Z,6.30
2023-01-19T00:54:54.616Z,6.07
2023-01-19T00:59:57.519Z,5.54
2023-01-19T01:05:03.440Z,4.90
2023-01-19T01:10:11.757Z,4.44
2023-01-19T01:15:16.148Z,4.54
2023-01-19T01:20:23.371Z,4.34
2023-01-19T01:25:28.615Z,3.90
2023-01-19T01:30:31.534Z,3.62
2023-01-19T01:35:34.541Z,3.43
2023-01-19T01:40:40.960Z,3.23
2023-01-19T01:45:44.131Z,3.10
2023-01-19T01:51:12.750Z,3.02
2023-01-19T01:56:20.059Z,2.97
2023-01-19T02:01:41.645Z,2.95
2023-01-19T02:07:03.748Z,2.92
2023-01-19T02:12:26.107Z,2.90
2023-01-19T02:17:29.113Z,2.90
2023-01-19T02:22:38.774Z,2.93
2023-01-19T02:27:42.808Z,3.00
2023-01-19T02:32:46.023Z,3.04
2023-01-19T02:37:49.208Z,3.04
2023-01-19T02:42:56.952Z,3.04
2023-01-19T02:47:59.954Z,3.12
2023-01-19T02:53:25.387Z,3.14
2023-01-19T02:58:48.158Z,3.15
2023-01-19T03:04:00.794Z,3.13
2023-01-19T03:09:15.677Z,3.10
2023-01-19T03:14:25.893Z,3.12
2023-01-19T03:19:40.598Z,3.22
2023-01-19T03:24:46.435Z,3.22
2023-01-19T03:29:54.130Z,3.25
2023-01-19T03:35:01.546Z,3.25
2023-01-19T03:40:05.803Z,3.22
2023-01-19T03:45:10.761Z,3.24
2023-01-19T03:50:24.304Z,3.21
2023-01-19T03:55:27.379Z,3.13
2023-01-19T04:00:31.112Z,3.03
2023-01-19T04:05:34.220Z,2.92
2023-01-19T04:10:37.644Z,2.82
2023-01-19T04:15:40.576Z,2.65
2023-01-19T04:20:43.432Z,2.50
2023-01-19T04:25:46.440Z,2.38
2023-01-19T04:30:55.157Z,2.31
2023-01-19T04:35:58.495Z,2.30
2023-01-19T04:41:01.404Z,2.38
2023-01-19T04:46:04.423Z,2.49
2023-01-19T04:51:07.518Z,2.56
2023-01-19T04:56:11.644Z,2.57
2023-01-19T05:01:14.770Z,2.60
2023-01-19T05:06:17.873Z,2.59
2023-01-19T05:11:21.180Z,2.56
2023-01-19T05:16:24.464Z,2.53
2023-01-19T05:21:28.937Z,2.43
2023-01-19T05:26:31.839Z,2.34
2023-01-19T05:31:34.933Z,2.31
2023-01-19T05:36:38.162Z,2.25
2023-01-19T05:41:42.196Z,2.27
2023-01-19T05:46:45.094Z,2.29
2023-01-19T05:51:48.104Z,2.29
2023-01-19T05:56:51.003Z,2.20
2023-01-19T06:01:54.572Z,2.18
2023-01-19T06:06:57.726Z,2.16
2023-01-19T06:12:00.635Z,2.13
2023-01-19T06:17:04.051Z,2.06
2023-01-19T06:22:06.952Z,2.05
2023-01-19T06:27:09.859Z,2.01
2023-01-19T06:32:12.803Z,1.86
2023-01-19T06:37:16.894Z,1.78
2023-01-19T06:42:19.803Z,1.78
2023-01-19T06:47:22.705Z,1.78
2023-01-19T06:52:25.924Z,1.81
2023-01-19T06:57:28.821Z,1.81
2023-01-19T07:02:31.908Z,1.82
2023-01-19T07:07:36.522Z,1.87
2023-01-19T07:12:39.786Z,1.91
2023-01-19T07:17:43.730Z,1.92
2023-01-19T07:22:46.822Z,2.07
2023-01-19T07:27:49.677Z,2.16
2023-01-19T07:32:56.215Z,2.24
2023-01-19T07:37:59.526Z,2.27
2023-01-19T07:43:03.335Z,2.29
2023-01-19T07:48:06.963Z,2.26
2023-01-19T07:53:12.034Z,2.25
2023-01-19T07:58:15.157Z,2.21
2023-01-19T08:03:18.968Z,2.19
2023-01-19T08:08:21.867Z,2.09
2023-01-19T08:13:25.080Z,2.13
2023-01-19T08:18:28.090Z,2.20
2023-01-19T08:23:31.426Z,2.27
2023-01-19T08:28:34.410Z,2.38
2023-01-19T08:33:37.308Z,2.54
2023-01-19T08:38:43.695Z,2.68
2023-01-19T08:43:46.709Z,2.84
2023-01-19T08:48:50.577Z,2.98
2023-01-19T08:53:53.532Z,3.12
2023-01-19T08:59:08.254Z,3.20
2023-01-19T09:04:12.469Z,3.21
2023-01-19T09:09:15.458Z,3.20
2023-01-19T09:14:18.363Z,3.23
2023-01-19T09:19:21.381Z,3.27
2023-01-19T09:24:24.375Z,3.27
2023-01-19T09:29:27.384Z,3.37
2023-01-19T09:34:31.620Z,3.55
2023-01-19T09:39:34.736Z,3.78
2023-01-19T09:44:37.942Z,3.94
2023-01-19T09:49:51.489Z,4.08
2023-01-19T09:54:57.059Z,4.14
2023-01-19T10:00:00.164Z,4.22
2023-01-19T10:05:13.515Z,4.28
2023-01-19T10:10:23.893Z,4.33
2023-01-19T10:15:32.847Z,4.37
2023-01-19T10:20:41.637Z,4.41
2023-01-19T10:25:45.443Z,4.49
2023-01-19T10:30:49.095Z,4.58
2023-01-19T10:35:52.043Z,4.44
2023-01-19T10:41:05.247Z,4.30
2023-01-19T10:46:20.232Z,4.27
2023-01-19T10:51:23.661Z,4.17
2023-01-19T10:56:38.103Z,4.16
2023-01-19T11:01:41.139Z,4.30
2023-01-19T11:06:44.275Z,4.49
2023-01-19T11:11:52.593Z,4.64
2023-01-19T11:16:58.267Z,4.71
2023-01-19T11:22:22.954Z,4.65
2023-01-19T11:27:27.222Z,4.58
2023-01-19T11:32:30.339Z,4.45
2023-01-19T11:37:35.346Z,4.45
2023-01-19T11:42:38.803Z,4.53
2023-01-19T11:47:45.097Z,4.59
2023-01-19T11:53:06.121Z,4.54
2023-01-19T11:58:16.188Z,4.52
2023-01-19T12:03:44.394Z,4.46
2023-01-19T12:08:49.852Z,4.40
2023-01-19T12:13:54.029Z,4.32
2023-01-19T12:19:04.669Z,4.31
2023-01-19T12:24:23.701Z,4.33
2023-01-19T12:29:32.091Z,4.33
2023-01-19T12:34:46.649Z,4.43
2023-01-19T12:39:50.557Z,4.50
2023-01-19T12:45:15.323Z,4.56
2023-01-19T12:50:23.496Z,4.64
2023-01-19T12:55:33.467Z,4.93
2023-01-19T13:00:43.072Z,5.60
2023-01-19T13:05:51.181Z,5.81
2023-01-19T13:11:00.492Z,5.81
2023-01-19T13:16:19.152Z,5.70
2023-01-19T13:21:34.427Z,5.39
2023-01-19T13:26:40.947Z,5.03
2023-01-19T13:31:46.120Z,4.88
2023-01-19T13:36:54.920Z,5.02
2023-01-19T13:42:02.895Z,4.95
2023-01-19T13:47:12.615Z,4.66
2023-01-19T13:52:17.481Z,4.48
2023-01-19T13:57:24.549Z,4.40
2023-01-19T14:02:27.666Z,4.28
2023-01-19T14:07:30.882Z,4.07
2023-01-19T14:12:33.772Z,3.95
2023-01-19T14:17:36.934Z,3.85
2023-01-19T14:22:43.206Z,3.77
2023-01-19T14:27:46.572Z,3.70
2023-01-19T14:32:49.580Z,3.61
2023-01-19T14:37:52.789Z,3.52
2023-01-19T14:43:00.299Z,3.53
2023-01-19T14:48:06.893Z,3.42
2023-01-19T14:53:25.817Z,3.37
2023-01-19T14:58:32.345Z,3.42
2023-01-19T15:03:43.982Z,3.43
2023-01-19T15:08:50.345Z,3.38
2023-01-19T15:13:54.599Z,3.37
2023-01-19T15:18:57.690Z,3.38
2023-01-19T15:24:01.229Z,3.44
2023-01-19T15:29:17.029Z,3.41
2023-01-19T15:34:19.931Z,3.42
2023-01-19T15:39:23.349Z,3.45
2023-01-19T15:44:26.257Z,3.49
2023-01-19T15:49:31.121Z,3.50
2023-01-19T15:54:34.004Z,3.52
2023-01-19T15:59:37.315Z,3.53
2023-01-19T16:04:40.221Z,3.56
2023-01-19T16:09:43.120Z,3.61
2023-01-19T16:14:46.027Z,3.67
2023-01-19T16:19:49.035Z,3.69
2023-01-19T16:24:53.277Z,3.68
2023-01-19T16:29:57.313Z,3.70
2023-01-19T16:35:00.601Z,3.70
2023-01-19T16:40:04.421Z,3.66
2023-01-19T16:45:08.217Z,3.60
2023-01-19T16:50:12.053Z,3.54
2023-01-19T16:55:15.208Z,3.43
2023-01-19T17:00:19.144Z,3.29
2023-01-19T17:05:22.652Z,3.28
2023-01-19T17:10:25.555Z,3.29
2023-01-19T17:15:28.464Z,3.29
2023-01-19T17:20:34.126Z,3.30
2023-01-19T17:25:37.038Z,3.26
2023-01-19T17:30:39.901Z,3.20
2023-01-19T17:35:43.228Z,3.13
2023-01-19T17:40:46.765Z,3.12
2023-01-19T17:45:49.781Z,3.18
2023-01-19T17:50:54.415Z,3.22
2023-01-19T17:56:07.230Z,3.24
2023-01-19T18:01:16.391Z,3.16
2023-01-19T18:06:20.157Z,3.12
2023-01-19T18:11:23.134Z,3.08
2023-01-19T18:16:28.905Z,3.12
2023-01-19T18:21:31.813Z,3.15
2023-01-19T18:26:35.417Z,3.12
2023-01-19T18:31:38.387Z,3.11
2023-01-19T18:36:41.443Z,3.09
2023-01-19T18:41:44.552Z,3.14
2023-01-19T18:46:47.453Z,3.21
2023-01-19T18:51:50.355Z,3.26
2023-01-19T18:56:53.262Z,3.29
2023-01-19T19:01:56.306Z,3.29
2023-01-19T19:06:59.433Z,3.35
2023-01-19T19:12:02.690Z,3.35
2023-01-19T19:17:05.810Z,3.41
2023-01-19T19:22:08.806Z,3.48
2023-01-19T19:27:14.492Z,3.54
2023-01-19T19:32:20.612Z,3.61
2023-01-19T19:37:24.059Z,3.68
2023-01-19T19:42:30.265Z,3.71
2023-01-19T19:47:34.042Z,3.73
2023-01-19T19:52:41.444Z,3.74
2023-01-19T19:57:44.913Z,3.78
2023-01-19T20:02:50.853Z,3.79
2023-01-19T20:07:53.927Z,3.76
2023-01-19T20:12:56.797Z,3.68
2023-01-19T20:17:59.695Z,3.66
2023-01-19T20:23:02.604Z,3.63
2023-01-19T20:28:05.503Z,3.62
2023-01-19T20:33:08.411Z,3.59
2023-01-19T20:38:11.313Z,3.53
2023-01-19T20:43:14.216Z,3.52
2023-01-19T20:48:17.121Z,3.53
2023-01-19T20:53:20.332Z,3.58
2023-01-19T20:58:23.359Z,4.29
2023-01-19T21:03:26.344Z,4.53
2023-01-19T21:08:29.252Z,4.35
2023-01-19T21:13:32.571Z,4.30
2023-01-19T21:18:35.580Z,4.36
2023-01-19T21:23:38.575Z,4.40
2023-01-19T21:28:42.105Z,4.42
2023-01-19T21:33:45.412Z,4.46
2023-01-19T21:38:48.975Z,4.33
2023-01-19T21:43:52.051Z,4.06
2023-01-19T21:49:02.846Z,3.81
2023-01-19T21:54:06.851Z,3.70
2023-01-19T21:59:15.150Z,3.59
2023-01-19T22:04:18.195Z,3.49
2023-01-19T22:09:21.198Z,3.77
2023-01-19T22:14:24.104Z,4.75
2023-01-19T22:19:27.317Z,5.60
2023-01-19T22:24:30.217Z,5.16
2023-01-19T22:29:33.122Z,4.73
2023-01-19T22:34:36.132Z,4.37
2023-01-19T22:39:39.083Z,4.11
2023-01-19T22:44:42.243Z,3.93
2023-01-19T22:49:45.157Z,3.80
2023-01-19T22:54:48.052Z,3.66
2023-01-19T22:59:51.186Z,3.57
2023-01-19T23:04:54.170Z,3.49
2023-01-19T23:09:57.081Z,3.43
2023-01-19T23:14:59.981Z,3.34
2023-01-19T23:20:04.958Z,3.32
2023-01-19T23:25:08.883Z,3.33
2023-01-19T23:30:12.538Z,3.36
2023-01-19T23:35:16.292Z,3.31
2023-01-19T23:40:20.031Z,3.19
2023-01-19T23:45:22.876Z,3.24
2023-01-19T23:50:25.838Z,3.19
2023-01-19T23:55:28.827Z,3.13
